Time;durP1;ratioP1;P1;durP2;ratioP2;P2;SDS_P1;SDS_P2;PMS_P1;PMS_P2;Temp;Humidity;BMP_temperature;BMP_pressure;BME280_temperature;BME280_humidity;BME280_pressure;Samples;Min_cycle;Max_cycle;Signal;HPM_P1;HPM_P2
2022/01/12 00:01:24;;;;;;;56.47;20.63;;;;;;;1.75;100.00;102821.31;5034190;28;20036;-78
2022/01/12 00:03:50;;;;;;;48.67;18.67;;;;;;;1.80;100.00;102823.78;5052095;28;20330;-76
2022/01/12 00:06:15;;;;;;;45.97;19.20;;;;;;;1.80;100.00;102829.94;5062360;28;20040;-78
2022/01/12 00:08:41;;;;;;;49.92;21.42;;;;;;;1.77;100.00;102830.00;5052513;28;20056;-77
2022/01/12 00:11:07;;;;;;;48.45;19.13;;;;;;;1.77;100.00;102829.16;5034033;28;20126;-78
2022/01/12 00:13:34;;;;;;;42.28;18.50;;;;;;;1.79;100.00;102840.50;5033523;28;20423;-74
2022/01/12 00:16:02;;;;;;;48.92;19.95;;;;;;;1.87;100.00;102859.50;5051499;28;20021;-77
2022/01/12 00:18:28;;;;;;;49.72;19.40;;;;;;;1.89;100.00;102855.06;5060827;28;20822;-76
2022/01/12 00:20:54;;;;;;;45.25;19.65;;;;;;;1.82;100.00;102837.75;5018115;28;20025;-76
2022/01/12 00:23:20;;;;;;;42.90;19.52;;;;;;;1.92;100.00;102867.25;5051464;28;20055;-78
2022/01/12 00:25:59;;;;;;;47.83;19.83;;;;;;;1.96;100.00;102866.22;5051280;28;20124;-76
2022/01/12 00:34:04;;;;;;;50.47;19.67;;;;;;;1.90;100.00;102833.94;5024307;28;20060;-76
2022/01/12 00:36:31;;;;;;;54.65;22.40;;;;;;;1.95;100.00;102854.84;5026228;28;20045;-76
2022/01/12 00:38:57;;;;;;;49.78;20.13;;;;;;;1.92;100.00;102854.97;5044217;28;20506;-75
2022/01/12 00:41:24;;;;;;;52.75;21.88;;;;;;;1.89;100.00;102841.88;5027968;28;20469;-77
2022/01/12 00:43:57;;;;;;;57.95;19.73;;;;;;;1.92;100.00;102854.97;5027862;28;20111;-75
2022/01/12 00:46:24;;;;;;;50.42;21.65;;;;;;;1.97;100.00;102867.97;5052911;28;20036;-78
2022/01/12 00:48:53;;;;;;;50.15;21.33;;;;;;;1.94;100.00;102853.09;5028067;28;20375;-75
2022/01/12 00:51:19;;;;;;;45.92;18.88;;;;;;;1.90;100.00;102851.53;5027727;28;20087;-75
2022/01/12 00:53:46;;;;;;;49.03;22.13;;;;;;;1.93;100.00;102859.31;5027586;28;20048;-75
2022/01/12 00:56:11;;;;;;;46.45;21.25;;;;;;;1.94;100.00;102857.53;5053012;28;20821;-76
2022/01/12 00:58:37;;;;;;;52.28;22.17;;;;;;;1.89;100.00;102847.16;5028059;28;20506;-76
2022/01/12 01:01:03;;;;;;;52.70;21.77;;;;;;;1.97;100.00;102878.50;5024616;28;20129;-77
2022/01/12 01:03:29;;;;;;;;;;;;;;;1.91;100.00;102869.03;5040602;28;20284;-78
2022/01/12 01:05:56;;;;;;;65.38;24.60;;;;;;;1.88;100.00;102871.78;5028478;28;20002;-76
2022/01/12 01:08:23;;;;;;;59.47;24.92;;;;;;;1.90;100.00;102873.44;5052626;28;20037;-75
2022/01/12 01:10:51;;;;;;;62.28;23.73;;;;;;;1.92;100.00;102886.56;5052866;28;20032;-75
2022/01/12 01:13:25;;;;;;;60.40;26.05;;;;;;;1.96;100.00;102893.44;5024453;28;20056;-75
2022/01/12 01:16:00;;;;;;;67.55;27.05;;;;;;;1.91;100.00;102890.09;5011049;28;20033;-75
2022/01/12 01:26:46;;;;;;;68.10;29.00;;;;;;;1.75;100.00;102900.31;5029345;28;20090;-75
2022/01/12 01:29:12;;;;;;;71.50;29.92;;;;;;;1.81;100.00;102928.22;5028224;28;20046;-75
2022/01/12 01:31:39;;;;;;;74.60;29.02;;;;;;;1.82;100.00;102937.84;5028327;28;20033;-76
2022/01/12 01:34:09;;;;;;;75.72;28.10;;;;;;;1.83;100.00;102942.22;5030979;28;20029;-75
2022/01/12 01:36:50;;;;;;;71.75;29.55;;;;;;;1.78;100.00;102933.59;5056150;28;20067;-76
2022/01/12 01:39:21;;;;;;;64.57;27.75;;;;;;;1.79;100.00;102937.97;5027726;28;20491;-77
2022/01/12 01:42:04;;;;;;;81.43;30.80;;;;;;;1.79;100.00;102956.38;5054244;28;20036;-75
2022/01/12 01:53:17;;;;;;;70.95;30.67;;;;;;;1.82;100.00;102978.22;5056096;28;20091;-78
2022/01/12 01:53:26;;;;;;;75.75;31.50;;;;;;;1.81;100.00;103010.75;5048937;28;20029;-76
2022/01/12 01:55:43;;;;;;;77.75;33.85;;;;;;;1.79;100.00;103022.25;5044427;28;20044;-76
2022/01/12 01:58:10;;;;;;;86.07;32.45;;;;;;;1.79;100.00;103038.03;5055967;28;20036;-76
2022/01/12 02:00:37;;;;;;;77.93;31.10;;;;;;;1.82;100.00;103051.09;5029881;28;20029;-75
2022/01/12 02:03:08;;;;;;;82.68;31.42;;;;;;;1.77;100.00;103058.28;5027272;28;20041;-76
2022/01/12 02:05:42;;;;;;;87.35;34.10;;;;;;;1.87;100.00;103083.41;5029658;28;20376;-78
2022/01/12 02:08:08;;;;;;;83.32;33.63;;;;;;;1.86;100.00;103085.19;5021644;28;20160;-76
2022/01/12 02:10:40;;;;;;;82.43;31.20;;;;;;;1.82;100.00;103075.66;5045044;28;20021;-77
2022/01/12 02:13:06;;;;;;;83.50;33.70;;;;;;;1.77;100.00;103064.41;5027024;28;20398;-76
2022/01/12 02:15:32;;;;;;;87.10;35.55;;;;;;;1.82;100.00;103064.28;5050652;28;20916;-76
2022/01/12 02:35:11;;;;;;;83.33;34.10;;;;;;;1.83;100.00;103071.28;5026868;28;20514;-75
2022/01/12 02:37:14;;;;;;;78.07;31.30;;;;;;;1.81;100.00;103076.59;5045871;28;20032;-76
2022/01/12 02:39:57;;;;;;;87.03;33.58;;;;;;;1.80;100.00;103101.22;5029774;28;20033;-76
2022/01/12 02:42:24;;;;;;;76.40;32.20;;;;;;;1.79;100.00;103098.63;5026488;28;20034;-76
2022/01/12 02:55:46;;;;;;;85.43;33.35;;;;;;;1.84;100.00;103130.94;5044812;28;20037;-76
2022/01/12 02:58:11;;;;;;;78.45;31.85;;;;;;;1.78;100.00;103118.84;5013102;28;20813;-76
2022/01/12 03:03:24;;;;;;;85.13;33.08;;;;;;;1.80;100.00;103139.84;5006818;28;20124;-76
2022/01/12 03:06:02;;;;;;;100.80;37.13;;;;;;;1.83;100.00;103145.91;5053788;28;20036;-76
2022/01/12 03:08:29;;;;;;;89.18;34.13;;;;;;;1.74;100.00;103142.69;5046859;28;20036;-76
2022/01/12 03:10:56;;;;;;;88.30;35.58;;;;;;;1.80;100.00;103158.28;5028696;28;20517;-77
2022/01/12 03:13:21;;;;;;;91.80;35.13;;;;;;;1.79;100.00;103157.44;5054881;28;20025;-76
2022/01/12 03:15:48;;;;;;;97.82;36.75;;;;;;;1.82;100.00;103159.97;5053513;28;20037;-77
2022/01/12 03:18:16;;;;;;;101.68;37.20;;;;;;;1.74;100.00;103145.31;5028999;28;20032;-76
2022/01/12 03:20:44;;;;;;;86.65;35.60;;;;;;;1.87;100.00;103175.63;5029190;28;20183;-76
2022/01/12 03:23:10;;;;;;;101.22;38.15;;;;;;;1.86;100.00;103166.00;5025137;28;20128;-75
2022/01/12 03:25:36;;;;;;;108.50;38.47;;;;;;;1.80;100.00;103150.38;5041837;28;20119;-75
2022/01/12 03:28:03;;;;;;;121.15;39.63;;;;;;;1.78;100.00;103146.94;5020766;28;20162;-76
2022/01/12 03:30:36;;;;;;;108.00;38.90;;;;;;;1.82;100.00;103149.41;5028780;28;20094;-76
2022/01/12 03:33:12;;;;;;;97.25;35.45;;;;;;;1.83;100.00;103143.25;5045578;28;20033;-76
2022/01/12 03:36:01;;;;;;;95.30;36.10;;;;;;;1.82;100.00;103144.16;5028172;28;20036;-76
2022/01/12 03:38:27;;;;;;;93.63;34.55;;;;;;;1.82;100.00;103154.69;5053318;28;20033;-76
2022/01/12 03:40:52;;;;;;;95.38;35.90;;;;;;;1.73;100.00;103143.56;5028557;28;20449;-76
2022/01/12 03:43:18;;;;;;;109.00;36.00;;;;;;;1.71;100.00;103148.03;5028429;28;20468;-76
2022/01/12 03:45:47;;;;;;;96.53;35.22;;;;;;;1.80;100.00;103166.19;5027801;28;20041;-76
2022/01/12 03:48:12;;;;;;;87.10;33.40;;;;;;;1.85;100.00;103169.53;5053316;28;20038;-77
2022/01/12 03:50:38;;;;;;;100.57;35.72;;;;;;;1.81;100.00;103162.66;5028235;28;20555;-76
2022/01/12 03:53:04;;;;;;;105.25;37.63;;;;;;;1.86;100.00;103176.56;5028417;28;20075;-75
2022/01/12 03:55:30;;;;;;;96.78;35.65;;;;;;;1.75;100.00;103179.50;5028117;28;20075;-75
2022/01/12 03:57:55;;;;;;;105.65;38.00;;;;;;;1.78;100.00;103186.44;5028358;28;20040;-75
2022/01/12 04:00:21;;;;;;;94.00;34.90;;;;;;;1.76;100.00;103199.66;5024845;28;20925;-76
2022/01/12 04:02:46;;;;;;;95.53;33.72;;;;;;;1.81;100.00;103215.34;5043392;28;20415;-76
2022/01/12 04:08:18;;;;;;;97.03;34.63;;;;;;;1.84;100.00;103212.59;5011711;28;20086;-76
2022/01/12 04:08:21;;;;;;;87.25;32.83;;;;;;;1.85;100.00;103224.84;5036276;28;20506;-77
2022/01/12 04:10:49;;;;;;;101.18;36.30;;;;;;;1.83;100.00;103224.06;5028034;28;20525;-75
2022/01/12 04:13:16;;;;;;;85.45;32.83;;;;;;;1.80;100.00;103214.50;5024900;28;20032;-76
2022/01/12 04:15:43;;;;;;;86.45;33.08;;;;;;;1.87;100.00;103228.31;5052034;28;20029;-77
2022/01/12 04:18:09;;;;;;;99.90;34.47;;;;;;;1.95;100.00;103228.97;5024676;28;20494;-77
2022/01/12 04:20:38;;;;;;;86.55;32.05;;;;;;;1.93;100.00;103222.03;5027774;28;20130;-76
2022/01/12 04:23:18;;;;;;;99.55;34.42;;;;;;;1.89;100.00;103208.06;5044697;28;20041;-76
2022/01/12 04:25:50;;;;;;;101.72;33.78;;;;;;;1.96;100.00;103219.28;5027457;28;20077;-76
2022/01/12 04:28:17;;;;;;;102.35;36.28;;;;;;;1.96;100.00;103217.50;5052897;28;20044;-76
2022/01/12 04:30:43;;;;;;;116.53;39.08;;;;;;;1.89;100.00;103213.31;5025562;28;20492;-76
2022/01/12 04:33:09;;;;;;;;;;;;;;;1.92;100.00;103223.78;5052907;28;20056;-76
2022/01/12 04:35:39;;;;;;;88.30;34.38;;;;;;;1.87;100.00;103216.03;5027409;28;19963;-76
2022/01/12 04:38:05;;;;;;;102.68;36.35;;;;;;;1.89;100.00;103222.09;5027815;28;20033;-76
2022/01/12 04:40:31;;;;;;;91.93;33.08;;;;;;;1.98;100.00;103235.91;5027750;28;20020;-76
2022/01/12 04:42:57;;;;;;;123.22;37.17;;;;;;;1.95;100.00;103233.38;5052420;28;20041;-76
2022/01/12 04:50:19;;;;;;;118.43;41.20;;;;;;;2.02;100.00;103241.03;5026713;28;20136;-76
2022/01/12 04:52:44;;;;;;;122.00;38.63;;;;;;;1.98;100.00;103238.56;5033491;28;20025;-76
2022/01/12 04:55:10;;;;;;;155.10;46.27;;;;;;;2.01;100.00;103238.44;5024031;28;20037;-76
2022/01/12 04:57:35;;;;;;;128.20;41.55;;;;;;;1.94;100.00;103240.41;5049112;28;20282;-76
2022/01/12 05:00:10;;;;;;;171.90;44.30;;;;;;;1.97;100.00;103252.66;5032050;28;20143;-77
2022/01/12 05:13:26;;;;;;;134.48;42.20;;;;;;;1.98;100.00;103291.25;5033298;28;20072;-77
2022/01/12 05:15:54;;;;;;;127.45;39.85;;;;;;;2.07;100.00;103302.38;5027546;28;20364;-77
2022/01/12 05:18:20;;;;;;;136.65;43.08;;;;;;;2.08;100.00;103301.50;5019404;28;20037;-76
2022/01/12 05:20:46;;;;;;;127.20;39.80;;;;;;;2.02;100.00;103285.84;5035287;28;20053;-76
2022/01/12 05:23:13;;;;;;;126.05;40.22;;;;;;;2.09;100.00;103297.94;5059489;28;20037;-75
2022/01/12 05:25:39;;;;;;;238.68;50.38;;;;;;;2.08;100.00;103304.13;5034969;28;20041;-78
2022/01/12 05:28:04;;;;;;;;;;;;;;;2.03;100.00;103306.00;5031711;28;20025;-78
2022/01/12 05:30:30;;;;;;;131.43;39.38;;;;;;;1.95;100.00;103281.66;5041826;28;20008;-76
2022/01/12 05:32:55;;;;;;;138.57;41.65;;;;;;;2.07;100.00;103306.78;5034851;28;20025;-77
2022/01/12 05:35:21;;;;;;;145.68;40.42;;;;;;;2.06;100.00;103311.19;5060252;28;21050;-78
2022/01/12 05:37:47;;;;;;;198.70;49.53;;;;;;;2.10;100.00;103310.19;5034696;28;20028;-75
2022/01/12 05:40:14;;;;;;;162.43;41.83;;;;;;;2.09;100.00;103310.25;5026346;28;20566;-78
2022/01/12 05:42:40;;;;;;;137.30;41.13;;;;;;;2.05;100.00;103321.78;5040332;28;20067;-76
2022/01/12 05:45:08;;;;;;;155.55;40.13;;;;;;;2.09;100.00;103328.69;5035062;28;20048;-76
2022/01/12 05:49:33;;;;;;;136.93;40.05;;;;;;;2.15;100.00;103338.19;5034293;28;20041;-79
2022/01/12 05:50:22;;;;;;;163.57;41.33;;;;;;;2.16;100.00;103338.16;5030873;28;20041;-77
2022/01/12 05:52:48;;;;;;;143.02;38.20;;;;;;;2.19;100.00;103350.38;5049325;28;20025;-76
2022/01/12 05:55:14;;;;;;;;;;;;;;;2.18;100.00;103346.88;5027229;28;20033;-79
2022/01/12 05:57:40;;;;;;;155.82;39.53;;;;;;;2.15;100.00;103343.47;5034686;28;20042;-78
2022/01/12 06:00:08;;;;;;;;;;;;;;;2.17;100.00;103362.72;5032035;28;20124;-78
2022/01/12 06:02:40;;;;;;;110.07;32.22;;;;;;;2.21;100.00;103356.47;5051247;28;19920;-78
2022/01/12 06:05:09;;;;;;;120.55;32.83;;;;;;;2.17;100.00;103353.03;5059434;28;20083;-78
2022/01/12 06:07:35;;;;;;;108.93;30.05;;;;;;;2.18;100.00;103357.44;5034465;28;20036;-78
2022/01/12 06:10:01;;;;;;;131.10;33.08;;;;;;;2.16;100.00;103368.91;5014361;28;20022;-79
2022/01/12 06:12:28;;;;;;;98.97;30.70;;;;;;;2.13;100.00;103363.72;5043484;28;20468;-79
2022/01/12 06:14:53;;;;;;;106.28;32.45;;;;;;;2.16;100.00;103371.56;5051129;28;20052;-77
2022/01/12 06:17:19;;;;;;;106.30;28.83;;;;;;;2.21;100.00;103385.47;5031373;28;20060;-77
2022/01/12 06:19:44;;;;;;;100.35;27.90;;;;;;;2.18;100.00;103386.41;5034438;28;20410;-78
2022/01/12 06:22:23;;;;;;;100.47;27.88;;;;;;;2.16;100.00;103382.09;5059427;28;20036;-76
2022/01/12 06:24:50;;;;;;;118.25;32.63;;;;;;;2.13;100.00;103374.25;5015920;28;20043;-79
2022/01/12 06:27:17;;;;;;;108.53;30.67;;;;;;;2.10;100.00;103378.72;5032848;28;20033;-75
2022/01/12 06:29:50;;;;;;;110.78;30.58;;;;;;;2.08;100.00;103377.03;5014861;28;20059;-75
2022/01/12 06:32:15;;;;;;;108.15;29.17;;;;;;;2.16;100.00;103401.41;5047620;28;20028;-75
2022/01/12 06:34:41;;;;;;;90.15;26.88;;;;;;;2.20;100.00;103413.59;5031373;28;20057;-78
2022/01/12 06:37:06;;;;;;;99.43;30.52;;;;;;;2.26;100.00;103417.81;5031879;28;20045;-76
2022/01/12 06:39:32;;;;;;;91.03;29.42;;;;;;;2.27;100.00;103414.28;5033535;28;20041;-75
2022/01/12 06:41:58;;;;;;;92.78;28.10;;;;;;;2.26;100.00;103417.81;5034222;28;20063;-76
2022/01/12 06:44:25;;;;;;;85.55;27.23;;;;;;;2.31;100.00;103429.09;5032924;28;20034;-79
2022/01/12 06:46:52;;;;;;;87.90;24.33;;;;;;;2.20;100.00;103413.59;5026308;28;20059;-78
2022/01/12 06:49:18;;;;;;;84.05;27.63;;;;;;;2.19;100.00;103411.00;5034788;28;20064;-77
2022/01/12 06:51:45;;;;;;;79.05;25.08;;;;;;;2.23;100.00;103417.94;5032518;28;20703;-79
2022/01/12 06:54:11;;;;;;;79.80;27.15;;;;;;;2.22;100.00;103435.47;5025161;28;20032;-76
2022/01/12 06:56:37;;;;;;;76.72;23.85;;;;;;;2.22;100.00;103429.34;5058999;28;20045;-74
2022/01/12 06:59:03;;;;;;;76.80;24.60;;;;;;;2.27;100.00;103430.97;5058820;28;20120;-76
2022/01/12 07:01:32;;;;;;;77.07;24.35;;;;;;;2.27;100.00;103428.34;5033361;28;20347;-75
2022/01/12 07:03:58;;;;;;;;;;;;;;;2.25;100.00;103413.47;5034634;28;20686;-78
2022/01/12 07:06:23;;;;;;;76.63;23.98;;;;;;;2.28;100.00;103416.00;5052481;28;20030;-78
2022/01/12 07:08:49;;;;;;;80.40;23.65;;;;;;;2.24;100.00;103403.81;5034229;28;20033;-77
2022/01/12 07:11:30;;;;;;;74.82;25.83;;;;;;;2.14;100.00;103386.53;5031280;28;20041;-79
2022/01/12 07:14:02;;;;;;;70.78;23.10;;;;;;;2.14;100.00;103386.53;5026617;28;20028;-75
2022/01/12 07:16:28;;;;;;;60.03;22.25;;;;;;;2.09;100.00;103379.63;5033912;28;20033;-78
2022/01/12 07:18:58;;;;;;;70.95;20.80;;;;;;;2.03;100.00;103371.88;5052116;28;20364;-78
2022/01/12 07:21:24;;;;;;;62.65;18.58;;;;;;;2.19;100.00;103389.91;5058575;28;20041;-78
2022/01/12 07:23:54;;;;;;;73.70;22.55;;;;;;;2.10;100.00;103349.72;5058804;28;20029;-78
2022/01/12 07:26:20;;;;;;;63.42;20.02;;;;;;;1.97;100.00;103322.00;5033846;28;20123;-79
2022/01/12 07:28:45;;;;;;;64.97;19.83;;;;;;;1.89;100.00;103313.44;5051348;28;20509;-77
2022/01/12 07:31:11;;;;;;;66.67;21.30;;;;;;;1.93;100.00;103308.97;5033548;28;20049;-77
2022/01/12 07:33:36;;;;;;;69.53;21.80;;;;;;;1.90;100.00;103294.09;5049832;28;20033;-75
2022/01/12 07:36:02;;;;;;;55.22;20.35;;;;;;;1.92;100.00;103292.31;5033310;28;20116;-73
2022/01/12 07:38:27;;;;;;;50.65;18.52;;;;;;;1.86;100.00;103272.25;5051711;28;20028;-76
2022/01/12 07:40:52;;;;;;;64.57;21.87;;;;;;;1.79;100.00;103243.50;5031730;28;20451;-77
2022/01/12 07:43:18;;;;;;;54.90;19.90;;;;;;;1.89;100.00;103252.84;5019937;28;20041;-77
2022/01/12 07:45:43;;;;;;;77.03;23.00;;;;;;;1.85;100.00;103248.56;5048076;28;20039;-76
2022/01/12 07:48:09;;;;;;;64.97;21.03;;;;;;;1.83;100.00;103242.50;5029049;28;20041;-78
2022/01/12 07:50:34;;;;;;;70.83;21.87;;;;;;;1.83;100.00;103245.13;5030672;28;20334;-78
2022/01/12 07:53:00;;;;;;;57.07;20.97;;;;;;;1.90;100.00;103258.09;5028134;28;20275;-77
2022/01/12 07:55:25;;;;;;;68.47;22.70;;;;;;;1.86;100.00;103248.53;5029747;28;20275;-79
2022/01/12 07:57:51;;;;;;;59.70;21.10;;;;;;;1.89;100.00;103252.84;5044977;28;20040;-78
2022/01/12 08:00:20;;;;;;;70.00;24.13;;;;;;;1.90;100.00;103241.41;5049105;28;20075;-75
2022/01/12 08:02:45;;;;;;;82.97;22.63;;;;;;;1.97;100.00;103261.41;5049012;28;20044;-78
2022/01/12 08:05:11;;;;;;;66.15;22.30;;;;;;;2.01;100.00;103268.28;5047256;28;20037;-77
2022/01/12 08:07:38;;;;;;;61.78;19.38;;;;;;;1.98;100.00;103265.75;5029713;28;20037;-74
2022/01/12 08:10:06;;;;;;;64.45;19.02;;;;;;;2.03;100.00;103276.16;5031428;28;20040;-76
2022/01/12 08:12:32;;;;;;;72.60;22.17;;;;;;;2.15;100.00;103288.09;5049800;28;20033;-75
2022/01/12 08:14:57;;;;;;;73.47;21.20;;;;;;;2.07;100.00;103276.03;5053181;28;20021;-77
2022/01/12 08:17:23;;;;;;;63.45;19.80;;;;;;;2.13;100.00;103290.81;5033899;28;20294;-79
2022/01/12 08:19:48;;;;;;;73.50;21.98;;;;;;;2.15;100.00;103278.41;5033813;28;20024;-77
2022/01/12 08:22:14;;;;;;;65.10;21.00;;;;;;;2.16;100.00;103264.34;5058659;28;20033;-79
2022/01/12 08:24:39;;;;;;;56.47;18.65;;;;;;;2.24;100.00;103282.56;5051870;28;20287;-79
2022/01/12 08:27:06;;;;;;;75.50;22.40;;;;;;;2.25;100.00;103276.41;5058658;28;20296;-78
2022/01/12 08:29:32;;;;;;;72.03;19.88;;;;;;;2.29;100.00;103281.53;5049099;28;20111;-76
2022/01/12 08:31:57;;;;;;;77.90;21.33;;;;;;;2.27;100.00;103261.38;5049253;28;20037;-77
2022/01/12 08:34:23;;;;;;;73.40;22.85;;;;;;;2.30;100.00;103266.56;5049063;28;20025;-76
2022/01/12 08:36:48;;;;;;;66.18;23.95;;;;;;;2.29;100.00;103264.81;5058947;22;20108;-79
2022/01/12 08:39:14;;;;;;;62.92;18.08;;;;;;;2.32;100.00;103262.13;5070739;28;20045;-79
2022/01/12 08:41:39;;;;;;;69.80;21.03;;;;;;;2.35;100.00;103269.91;5091764;28;20040;-79
2022/01/12 08:44:08;;;;;;;63.42;22.20;;;;;;;2.36;100.00;103263.72;5073392;28;20039;-77
2022/01/12 08:46:34;;;;;;;71.78;21.77;;;;;;;2.36;100.00;103260.22;5092206;28;20070;-79
2022/01/12 08:49:00;;;;;;;76.32;20.77;;;;;;;2.41;100.00;103266.22;5066330;28;20032;-78
2022/01/12 08:51:25;;;;;;;68.97;23.67;;;;;;;2.44;100.00;103268.78;5069201;28;20039;-79
2022/01/12 08:53:51;;;;;;;77.97;19.33;;;;;;;2.45;100.00;103259.94;5083353;28;20089;-79
2022/01/12 08:56:17;;;;;;;69.15;18.83;;;;;;;2.42;100.00;103245.09;5047837;28;20056;-77
2022/01/12 08:58:42;;;;;;;75.95;20.90;;;;;;;2.40;100.00;103241.63;5062511;28;20033;-79
2022/01/12 09:01:10;;;;;;;77.57;23.58;;;;;;;2.45;100.00;103252.91;5082848;28;20039;-78
2022/01/12 09:03:37;;;;;;;64.03;21.20;;;;;;;2.50;100.00;103253.59;5043387;28;20136;-78
2022/01/12 09:06:05;;;;;;;77.15;20.15;;;;;;;2.53;100.00;103258.81;5052907;28;20384;-79
2022/01/12 09:08:31;;;;;;;68.97;18.88;;;;;;;2.62;100.00;103267.31;5051867;28;20024;-78
2022/01/12 09:10:56;;;;;;;70.40;18.02;;;;;;;2.45;100.00;103230.94;5079948;28;20329;-79
2022/01/12 09:13:21;;;;;;;68.63;18.67;;;;;;;2.43;100.00;103230.13;5061992;28;20474;-77
2022/01/12 09:15:47;;;;;;;73.53;20.40;;;;;;;2.42;100.00;103223.13;5045366;28;20354;-79
2022/01/12 09:18:12;;;;;;;79.67;21.80;;;;;;;2.50;100.00;103231.66;5086906;28;20036;-79
2022/01/12 09:20:38;;;;;;;72.17;20.83;;;;;;;2.61;100.00;103241.88;5050251;28;20339;-78
2022/01/12 09:23:04;;;;;;;73.45;22.92;;;;;;;2.65;100.00;103241.72;5050875;28;20295;-79
2022/01/12 09:25:32;;;;;;;70.47;20.00;;;;;;;2.64;100.00;103244.41;5061565;28;20040;-79
2022/01/12 09:28:01;;;;;;;67.35;20.08;;;;;;;2.88;100.00;103269.09;5064704;28;20505;-79
2022/01/12 09:30:27;;;;;;;63.75;19.65;;;;;;;3.02;100.00;103282.72;5081383;28;20051;-79
2022/01/12 09:32:52;;;;;;;58.88;18.58;;;;;;;2.75;100.00;103250.19;5053918;28;20529;-79
2022/01/12 09:35:18;;;;;;;67.10;18.47;;;;;;;2.81;100.00;103257.03;5061441;28;20656;-80
2022/01/12 09:37:43;;;;;;;60.73;17.53;;;;;;;2.68;100.00;103246.88;5066803;28;20039;-79
2022/01/12 09:40:09;;;;;;;65.90;18.27;;;;;;;2.64;100.00;103239.13;5044928;28;20033;-80
2022/01/12 09:42:35;;;;;;;62.60;18.92;;;;;;;2.61;100.00;103252.41;5060981;28;20303;-78
2022/01/12 09:45:02;;;;;;;65.82;19.55;;;;;;;2.51;100.00;103228.13;5069674;28;20067;-79
2022/01/12 09:47:28;;;;;;;54.42;17.38;;;;;;;2.48;100.00;103229.09;5048280;28;20135;-79
2022/01/12 09:49:53;;;;;;;64.47;19.98;;;;;;;2.50;100.00;103208.78;5067135;28;20067;-78
2022/01/12 09:52:19;;;;;;;58.13;18.23;;;;;;;2.49;100.00;103224.66;5051308;28;20040;-79
2022/01/12 09:54:45;;;;;;;60.30;17.10;;;;;;;2.56;100.00;103226.19;5050149;28;20643;-79
2022/01/12 09:57:10;;;;;;;63.78;16.85;;;;;;;2.47;100.00;103222.06;5065164;28;20115;-79
2022/01/12 09:59:36;;;;;;;62.53;17.55;;;;;;;2.45;100.00;103221.25;5064850;28;20047;-79
2022/01/12 10:02:02;;;;;;;65.28;20.35;;;;;;;2.57;100.00;103237.59;5057871;28;20051;-77
2022/01/12 10:04:29;;;;;;;;;;;;;;;2.51;100.00;103231.63;5050654;28;20109;-79
2022/01/12 10:07:01;;;;;;;57.85;15.90;;;;;;;2.63;100.00;103259.38;5057042;28;19999;-79
2022/01/12 10:09:38;;;;;;;49.70;16.60;;;;;;;2.70;100.00;103265.31;5068128;28;20031;-79
2022/01/12 10:12:09;;;;;;;48.45;15.68;;;;;;;2.67;100.00;103261.00;5058707;28;20499;-79
2022/01/12 10:14:38;;;;;;;61.97;18.10;;;;;;;2.63;100.00;103247.97;5048955;28;20822;-76
2022/01/12 10:17:04;;;;;;;50.63;14.38;;;;;;;2.50;100.00;103237.78;5067806;28;20105;-78
2022/01/12 10:19:32;;;;;;;56.53;15.53;;;;;;;2.49;100.00;103229.94;5049300;28;20032;-80
2022/01/12 10:21:59;;;;;;;48.58;15.90;;;;;;;2.39;100.00;103224.09;5067119;28;20039;-80
2022/01/12 10:24:26;;;;;;;52.58;16.02;;;;;;;2.41;100.00;103224.91;5049276;28;20508;-79
2022/01/12 10:26:52;;;;;;;48.13;15.48;;;;;;;2.48;100.00;103249.28;5047222;28;20040;-77
2022/01/12 10:29:21;;;;;;;48.35;16.35;;;;;;;2.61;100.00;103268.25;5050368;28;20412;-79
2022/01/12 10:31:58;;;;;;;44.63;14.23;;;;;;;2.63;100.00;103258.50;5066842;28;20059;-78
2022/01/12 10:34:45;;;;;;;47.42;13.48;;;;;;;2.51;100.00;103239.53;5064830;28;20112;-79
2022/01/12 10:37:22;;;;;;;38.65;12.73;;;;;;;2.59;100.00;103256.88;5044540;28;20458;-78
2022/01/12 10:39:51;;;;;;;31.10;10.88;;;;;;;2.57;100.00;103248.16;5065303;28;20043;-80
2022/01/12 10:42:24;;;;;;;32.17;10.23;;;;;;;2.43;100.00;103225.69;5065714;28;20040;-79
2022/01/12 10:44:55;;;;;;;26.02;9.38;;;;;;;2.46;100.00;103235.31;5046413;28;20051;-79
2022/01/12 10:47:29;;;;;;;29.58;9.93;;;;;;;2.56;100.00;103256.97;5049062;28;20042;-80
2022/01/12 10:49:55;;;;;;;23.02;9.50;;;;;;;2.62;100.00;103277.88;5047121;28;20064;-78
2022/01/12 10:52:24;;;;;;;28.97;10.23;;;;;;;2.68;100.00;103294.38;5063262;28;20060;-80
2022/01/12 10:54:50;;;;;;;30.10;9.98;;;;;;;2.70;100.00;103297.81;5068700;28;20032;-79
2022/01/12 10:57:32;;;;;;;37.40;9.48;;;;;;;2.78;100.00;103302.84;5048746;28;20028;-79
2022/01/12 11:00:21;;;;;;;27.90;9.23;;;;;;;2.76;100.00;103286.19;5046508;28;20036;-79
2022/01/12 11:03:00;;;;;;;27.63;8.52;;;;;;;2.76;100.00;103283.56;5064262;28;20043;-78
2022/01/12 11:05:29;;;;;;;31.67;9.35;;;;;;;2.79;100.00;103277.34;5048643;28;20052;-79
2022/01/12 11:07:55;;;;;;;37.88;9.63;;;;;;;2.76;100.00;103267.72;5063712;28;20036;-79
2022/01/12 11:10:21;;;;;;;22.25;7.93;;;;;;;2.79;100.00;103270.28;5066308;28;20035;-79
2022/01/12 11:12:49;;;;;;;28.38;6.78;;;;;;;2.92;100.00;103292.69;5047564;28;20439;-78
2022/01/12 11:15:17;;;;;;;23.55;7.80;;;;;;;2.94;100.00;103287.38;5050272;28;20028;-79
2022/01/12 11:17:44;;;;;;;18.73;7.93;;;;;;;3.00;100.00;103287.19;5087178;28;20039;-79
2022/01/12 11:20:15;;;;;;;24.13;8.07;;;;;;;2.95;100.00;103276.78;5058761;28;20060;-79
2022/01/12 11:22:43;;;;;;;33.88;9.57;;;;;;;2.99;100.00;103295.16;5065326;28;20032;-78
2022/01/12 11:25:25;;;;;;;27.40;8.60;;;;;;;3.07;100.00;103301.06;5047657;28;20040;-79
2022/01/12 11:28:07;;;;;;;30.95;9.43;;;;;;;3.20;100.00;103323.47;5063819;28;20032;-78
2022/01/12 11:30:33;;;;;;;32.22;9.25;;;;;;;3.16;100.00;103313.91;5061828;28;20506;-78
2022/01/12 11:33:07;;;;;;;48.80;12.52;;;;;;;3.12;100.00;103310.53;5055466;28;20034;-79
2022/01/12 11:35:36;;;;;;;31.08;9.90;;;;;;;3.16;100.00;103316.56;5046309;28;20024;-78
2022/01/12 11:38:04;;;;;;;42.00;11.48;;;;;;;3.19;100.00;103316.47;5053992;28;20509;-78
2022/01/12 11:40:41;;;;;;;47.10;12.07;;;;;;;3.22;100.00;103310.22;5065152;28;20409;-79
2022/01/12 11:43:29;;;;;;;42.65;10.05;;;;;;;3.35;100.00;103327.38;5036451;28;20029;-79
2022/01/12 11:46:09;;;;;;;38.53;12.10;;;;;;;3.28;100.00;103313.53;5061917;28;20672;-79
2022/01/12 11:48:50;;;;;;;38.72;11.93;;;;;;;3.35;100.00;103324.75;5064397;28;20039;-80
2022/01/12 11:51:17;;;;;;;40.25;10.85;;;;;;;3.33;100.00;103308.94;5054934;28;20033;-79
2022/01/12 11:53:51;;;;;;;39.95;11.50;;;;;;;3.35;100.00;103307.13;5043881;28;20474;-77
2022/01/12 11:56:20;;;;;;;35.25;10.52;;;;;;;3.45;100.00;103333.22;5063640;28;20058;-76
2022/01/12 11:58:55;;;;;;;44.03;12.43;;;;;;;3.52;100.00;103340.00;5061891;28;20020;-79
2022/01/12 12:01:22;;;;;;;44.08;10.90;;;;;;;3.48;100.00;103330.44;5047215;28;20043;-80
2022/01/12 12:03:59;;;;;;;53.80;14.40;;;;;;;3.43;100.00;103325.31;5044536;28;20032;-78
2022/01/12 12:06:24;;;;;;;44.30;11.73;;;;;;;3.50;100.00;103336.53;5059844;28;20039;-79
2022/01/12 12:08:57;;;;;;;56.17;15.25;;;;;;;3.50;100.00;103334.75;5062252;28;20028;-79
2022/01/12 12:11:26;;;;;;;46.08;14.93;;;;;;;3.56;100.00;103338.97;5064769;28;20051;-80
2022/01/12 12:13:51;;;;;;;62.63;13.93;;;;;;;3.55;100.00;103337.25;5063490;28;20048;-78
2022/01/12 12:16:16;;;;;;;54.43;17.47;;;;;;;3.55;100.00;103339.88;5065484;28;20043;-77
2022/01/12 12:18:42;;;;;;;61.27;16.13;;;;;;;3.61;100.00;103333.53;5067117;28;20035;-78
2022/01/12 12:21:08;;;;;;;63.53;19.25;;;;;;;3.64;100.00;103341.34;5063391;28;20028;-79